createdAt,value
2019-02-15T00:02:21.566Z,20.17
2019-02-15T00:07:27.652Z,23.00
2019-02-15T00:12:34.235Z,21.33
2019-02-15T00:17:42.397Z,20.80
2019-02-15T00:22:49.029Z,24.70
2019-02-15T00:27:55.990Z,21.93
2019-02-15T00:33:02.859Z,20.30
2019-02-15T00:38:21.958Z,27.30
2019-02-15T00:43:27.955Z,23.07
2019-02-15T00:48:33.959Z,22.63
2019-02-15T00:59:11.786Z,23.63
2019-02-15T01:04:26.282Z,26.80
2019-02-15T01:09:34.808Z,26.70
2019-02-15T01:14:41.654Z,25.77
2019-02-15T01:19:48.508Z,27.80
2019-02-15T01:24:55.485Z,22.00
2019-02-15T01:35:52.051Z,21.57
2019-02-15T01:41:00.248Z,23.13
2019-02-15T01:46:27.137Z,22.87
2019-02-15T01:51:34.126Z,22.67
2019-02-15T01:56:41.100Z,18.23
2019-02-15T02:01:48.129Z,17.90
2019-02-15T02:06:55.018Z,23.63
2019-02-15T02:12:01.924Z,18.80
2019-02-15T02:17:09.856Z,21.03
2019-02-15T02:22:16.735Z,20.10
2019-02-15T02:27:42.023Z,16.33
2019-02-15T02:32:48.925Z,19.53
2019-02-15T02:37:55.906Z,16.80
2019-02-15T02:43:03.035Z,16.50
2019-02-15T02:48:10.066Z,17.43
2019-02-15T02:53:28.988Z,16.53
2019-02-15T02:58:35.629Z,16.07
2019-02-15T03:03:42.107Z,15.10
2019-02-15T03:08:49.305Z,14.47
2019-02-15T03:13:55.817Z,19.70
2019-02-15T03:19:02.352Z,16.40
2019-02-15T03:24:09.117Z,14.97
2019-02-15T03:29:16.348Z,15.07
2019-02-15T03:34:23.250Z,14.60
2019-02-15T03:39:45.935Z,17.67
2019-02-15T03:45:12.051Z,17.83
2019-02-15T03:50:19.049Z,18.53
2019-02-15T03:55:25.094Z,19.70
2019-02-15T04:00:31.069Z,20.73
2019-02-15T04:05:37.614Z,19.50
2019-02-15T04:10:44.997Z,19.47
2019-02-15T04:15:52.618Z,22.60
2019-02-15T04:21:20.444Z,19.63
2019-02-15T04:26:26.499Z,19.90
2019-02-15T04:31:32.544Z,18.37
2019-02-15T04:36:39.311Z,19.87
2019-02-15T04:41:46.303Z,21.23
2019-02-15T04:46:53.419Z,18.13
2019-02-15T04:52:00.378Z,17.07
2019-02-15T04:57:07.374Z,19.53
2019-02-15T05:02:14.252Z,16.20
2019-02-15T05:07:21.267Z,18.23
2019-02-15T05:12:27.345Z,14.60
2019-02-15T05:17:33.474Z,15.90
2019-02-15T05:22:40.409Z,15.87
2019-02-15T05:27:47.311Z,11.23
2019-02-15T05:32:54.387Z,13.13
2019-02-15T05:38:13.212Z,15.97
2019-02-15T05:43:20.246Z,12.83
2019-02-15T05:48:26.278Z,18.77
2019-02-15T05:53:32.346Z,9.83
2019-02-15T05:58:39.196Z,12.90
2019-02-15T06:03:46.393Z,12.43
2019-02-15T06:08:53.476Z,13.87
2019-02-15T06:14:00.387Z,15.27
2019-02-15T06:19:08.638Z,13.67
2019-02-15T06:24:15.569Z,16.07
2019-02-15T06:29:22.492Z,13.07
2019-02-15T06:34:52.950Z,16.83
2019-02-15T06:40:00.024Z,13.00
2019-02-15T06:45:08.168Z,13.63
2019-02-15T06:50:15.416Z,16.30
2019-02-15T06:55:22.481Z,13.27
2019-02-15T07:05:57.042Z,17.73
2019-02-15T07:11:03.937Z,16.47
2019-02-15T07:16:10.853Z,17.83
2019-02-15T07:21:17.846Z,14.20
2019-02-15T07:26:43.976Z,17.37
2019-02-15T07:31:50.853Z,17.90
2019-02-15T07:36:58.063Z,16.90
2019-02-15T07:42:06.011Z,18.43
2019-02-15T07:47:31.316Z,13.07
2019-02-15T07:52:38.234Z,14.63
2019-02-15T07:57:45.222Z,14.47
2019-02-15T08:02:52.354Z,16.60
2019-02-15T08:07:59.296Z,14.00
2019-02-15T08:13:06.396Z,10.23
2019-02-15T08:18:13.324Z,10.60
2019-02-15T08:23:20.915Z,9.70
2019-02-15T08:28:26.925Z,10.30
2019-02-15T08:33:34.288Z,10.83
2019-02-15T08:38:41.418Z,15.07
2019-02-15T08:43:48.431Z,16.93
2019-02-15T08:48:56.974Z,20.13
2019-02-15T08:54:05.278Z,19.57
2019-02-15T08:59:12.494Z,12.27
2019-02-15T09:04:19.647Z,18.10
2019-02-15T09:09:25.703Z,8.77
2019-02-15T09:14:32.164Z,15.70
2019-02-15T09:19:38.657Z,11.33
2019-02-15T09:24:45.335Z,12.13
2019-02-15T09:29:52.193Z,19.90
2019-02-15T09:34:58.765Z,10.33
2019-02-15T09:40:07.067Z,7.23
2019-02-15T09:45:16.600Z,9.90
2019-02-15T09:50:24.548Z,10.03
2019-02-15T09:55:31.451Z,7.67
2019-02-15T10:00:38.365Z,9.87
2019-02-15T10:05:45.765Z,6.60
2019-02-15T10:10:52.430Z,6.23
2019-02-15T10:16:00.590Z,6.30
2019-02-15T10:21:07.398Z,7.97
2019-02-15T10:26:14.646Z,9.90
2019-02-15T10:31:21.494Z,7.73
2019-02-15T10:36:27.509Z,6.20
2019-02-15T10:41:35.285Z,8.87
2019-02-15T10:46:42.065Z,6.60
2019-02-15T10:51:49.802Z,4.10
2019-02-15T10:56:56.524Z,6.60
2019-02-15T11:02:03.991Z,4.37
2019-02-15T11:07:10.684Z,2.80
2019-02-15T11:12:17.454Z,2.93
2019-02-15T11:17:24.046Z,5.13
2019-02-15T11:22:31.699Z,4.53
2019-02-15T11:27:38.599Z,3.60
2019-02-15T11:32:45.598Z,6.00
2019-02-15T11:37:52.163Z,3.70
2019-02-15T11:42:59.201Z,5.20
2019-02-15T11:48:06.424Z,2.70
2019-02-15T11:53:13.520Z,3.97
2019-02-15T11:58:20.952Z,2.30
2019-02-15T12:03:27.159Z,4.13
2019-02-15T12:08:34.029Z,1.37
2019-02-15T12:13:41.025Z,1.80
2019-02-15T12:18:49.544Z,3.13
2019-02-15T12:23:56.793Z,1.97
2019-02-15T12:29:04.557Z,5.03
2019-02-15T12:34:11.304Z,2.63
2019-02-15T12:39:18.301Z,3.67
2019-02-15T12:44:24.424Z,2.43
2019-02-15T12:49:30.660Z,1.93
2019-02-15T12:54:37.656Z,2.50
2019-02-15T12:59:45.460Z,2.87
2019-02-15T13:04:52.337Z,2.60
2019-02-15T13:09:59.367Z,1.80
2019-02-15T13:15:08.599Z,3.77
2019-02-15T13:20:15.232Z,2.27
2019-02-15T13:25:22.092Z,3.50
2019-02-15T13:30:28.136Z,3.77
2019-02-15T13:35:35.445Z,2.47
2019-02-15T13:40:42.271Z,3.60
2019-02-15T13:45:49.227Z,3.37
2019-02-15T13:50:56.147Z,2.37
2019-02-15T13:56:03.479Z,3.90
2019-02-15T14:01:10.595Z,7.43
2019-02-15T14:06:17.548Z,3.33
2019-02-15T14:11:24.600Z,4.83
2019-02-15T14:16:31.366Z,7.53
2019-02-15T14:21:44.340Z,4.77
2019-02-15T14:26:46.544Z,11.53
2019-02-15T14:31:53.752Z,3.73
2019-02-15T14:37:01.444Z,3.97
2019-02-15T14:42:09.702Z,4.23
2019-02-15T14:47:16.643Z,5.00
2019-02-15T14:52:24.649Z,4.27
2019-02-15T14:57:31.725Z,3.20
2019-02-15T15:02:38.757Z,8.53
2019-02-15T15:07:45.985Z,8.70
2019-02-15T15:12:53.198Z,8.03
2019-02-15T15:18:10.676Z,7.07
2019-02-15T15:23:08.041Z,3.67
2019-02-15T15:28:14.808Z,3.00
2019-02-15T15:33:21.653Z,9.40
2019-02-15T15:38:27.568Z,3.80
2019-02-15T15:43:34.743Z,6.07
2019-02-15T15:48:41.488Z,5.03
2019-02-15T15:53:48.455Z,3.63
2019-02-15T15:58:55.190Z,4.17
2019-02-15T16:04:02.070Z,4.13
2019-02-15T16:09:09.184Z,5.53
2019-02-15T16:14:17.213Z,4.73
2019-02-15T16:19:23.500Z,6.90
2019-02-15T16:24:29.467Z,8.37
2019-02-15T16:29:36.244Z,8.80
2019-02-15T16:34:42.949Z,11.80
2019-02-15T16:39:49.414Z,16.90
2019-02-15T16:44:56.226Z,12.63
2019-02-15T16:50:03.372Z,12.50
2019-02-15T16:55:13.287Z,17.17
2019-02-15T17:00:19.987Z,21.73
2019-02-15T17:05:27.722Z,27.33
2019-02-15T17:10:33.664Z,25.63
2019-02-15T17:15:40.522Z,25.77
2019-02-15T17:20:47.554Z,29.00
2019-02-15T17:25:54.382Z,29.60
2019-02-15T17:31:01.416Z,23.97
2019-02-15T17:36:08.536Z,20.80
2019-02-15T17:41:15.379Z,16.57
2019-02-15T17:46:22.192Z,12.07
2019-02-15T17:51:28.205Z,17.70
2019-02-15T17:56:34.762Z,24.57
2019-02-15T18:01:41.828Z,27.07
2019-02-15T18:06:48.851Z,24.37
2019-02-15T18:11:55.822Z,29.10
2019-02-15T18:17:02.813Z,29.87
2019-02-15T18:22:21.355Z,24.00
2019-02-15T18:27:27.435Z,21.90
2019-02-15T18:32:34.305Z,19.20
2019-02-15T18:37:41.168Z,25.67
2019-02-15T18:42:48.337Z,18.47
2019-02-15T18:47:55.370Z,23.43
2019-02-15T18:53:02.303Z,23.30
2019-02-15T18:58:10.418Z,27.20
2019-02-15T19:03:18.308Z,24.20
2019-02-15T19:08:25.718Z,28.20
2019-02-15T19:13:32.931Z,29.97
2019-02-15T19:18:40.544Z,27.33
2019-02-15T19:23:48.678Z,32.70
2019-02-15T19:28:56.285Z,31.77
2019-02-15T19:34:02.836Z,32.70
2019-02-15T19:39:09.565Z,34.50
2019-02-15T19:44:16.616Z,28.50
2019-02-15T19:49:23.455Z,27.07
2019-02-15T19:54:29.361Z,29.47
2019-02-15T19:59:35.861Z,31.07
2019-02-15T20:04:42.449Z,30.70
2019-02-15T20:09:49.529Z,38.97
2019-02-15T20:14:58.768Z,38.20
2019-02-15T20:20:08.444Z,26.70
2019-02-15T20:25:15.418Z,25.50
2019-02-15T20:30:24.356Z,26.17
2019-02-15T20:35:32.815Z,25.60
2019-02-15T20:40:39.629Z,28.90
2019-02-15T20:45:46.492Z,26.37
2019-02-15T20:50:54.911Z,26.20
2019-02-15T20:56:01.486Z,26.73
2019-02-15T21:01:08.004Z,29.60
2019-02-15T21:06:14.811Z,27.20
2019-02-15T21:11:22.427Z,31.70
2019-02-15T21:16:48.174Z,30.07
2019-02-15T21:21:54.746Z,30.20
2019-02-15T21:27:01.636Z,30.23
2019-02-15T21:32:08.733Z,29.17
2019-02-15T21:37:15.668Z,34.53
2019-02-15T21:42:22.324Z,29.20
2019-02-15T21:47:28.312Z,30.33
2019-02-15T21:52:43.560Z,31.73
2019-02-15T21:57:43.805Z,31.80
2019-02-15T22:02:51.193Z,29.30
2019-02-15T22:07:58.132Z,31.00
2019-02-15T22:13:05.115Z,35.07
2019-02-15T22:18:11.590Z,39.53
2019-02-15T22:23:18.253Z,38.83
2019-02-15T22:28:24.287Z,34.30
2019-02-15T22:33:32.243Z,34.63
2019-02-15T22:38:39.061Z,38.20
2019-02-15T22:43:57.971Z,34.40
2019-02-15T22:49:04.800Z,37.03
2019-02-15T22:54:11.332Z,38.53
2019-02-15T22:59:18.737Z,37.17
2019-02-15T23:04:24.682Z,37.33
2019-02-15T23:09:31.648Z,35.17
2019-02-15T23:14:38.619Z,36.00
2019-02-15T23:19:45.616Z,34.10
2019-02-15T23:25:13.807Z,30.43
2019-02-15T23:30:20.755Z,34.50
2019-02-15T23:35:26.743Z,31.70
2019-02-15T23:40:32.660Z,33.67
2019-02-15T23:45:39.616Z,31.57
2019-02-15T23:50:54.370Z,27.03
2019-02-15T23:55:55.021Z,29.57
